createdAt,value
2023-05-23T00:00:02.193Z,11.63
2023-05-23T00:02:32.261Z,11.30
2023-05-23T00:05:03.651Z,11.03
2023-05-23T00:07:32.600Z,11.57
2023-05-23T00:10:01.079Z,11.97
2023-05-23T00:12:29.928Z,12.27
2023-05-23T00:14:58.421Z,9.17
2023-05-23T00:17:27.190Z,9.50
2023-05-23T00:19:57.142Z,9.37
2023-05-23T00:22:25.765Z,8.80
2023-05-23T00:24:54.338Z,8.90
2023-05-23T00:27:22.866Z,9.00
2023-05-23T00:29:51.337Z,9.07
2023-05-23T00:32:19.892Z,9.53
2023-05-23T00:34:48.372Z,9.73
2023-05-23T00:37:18.166Z,9.40
2023-05-23T00:39:46.735Z,9.00
2023-05-23T00:42:15.181Z,9.80
2023-05-23T00:44:43.659Z,9.87
2023-05-23T00:47:13.967Z,9.83
2023-05-23T00:49:42.496Z,9.03
2023-05-23T00:52:10.948Z,9.13
2023-05-23T00:54:40.764Z,9.07
2023-05-23T00:57:09.197Z,8.90
2023-05-23T00:59:37.970Z,9.00
2023-05-23T01:02:06.558Z,9.33
2023-05-23T01:04:38.085Z,8.50
2023-05-23T01:07:06.733Z,10.13
2023-05-23T01:09:35.348Z,8.83
2023-05-23T01:12:09.669Z,8.70
2023-05-23T01:14:40.133Z,8.40
2023-05-23T01:17:10.032Z,8.03
2023-05-23T01:19:45.678Z,7.90
2023-05-23T01:22:14.646Z,8.27
2023-05-23T01:24:44.181Z,7.97
2023-05-23T01:27:17.066Z,8.37
2023-05-23T01:29:47.203Z,7.57
2023-05-23T01:32:16.254Z,7.27
2023-05-23T01:34:44.900Z,6.97
2023-05-23T01:37:14.778Z,7.83
2023-05-23T01:39:43.314Z,8.10
2023-05-23T01:42:11.738Z,8.53
2023-05-23T01:44:40.208Z,7.73
2023-05-23T01:47:10.600Z,7.57
2023-05-23T01:49:39.200Z,6.83
2023-05-23T01:52:10.139Z,6.63
2023-05-23T01:54:38.695Z,6.57
2023-05-23T01:57:07.436Z,7.47
2023-05-23T01:59:35.856Z,7.40
2023-05-23T02:02:04.373Z,7.67
2023-05-23T02:04:34.233Z,6.77
2023-05-23T02:07:02.890Z,6.83
2023-05-23T02:09:31.341Z,7.20
2023-05-23T02:12:00.006Z,6.63
2023-05-23T02:14:28.843Z,7.47
2023-05-23T02:16:57.344Z,7.60
2023-05-23T02:19:27.026Z,6.93
2023-05-23T02:21:56.798Z,7.70
2023-05-23T02:24:25.378Z,7.37
2023-05-23T02:26:53.984Z,7.20
2023-05-23T02:29:22.433Z,6.97
2023-05-23T02:31:51.000Z,6.90
2023-05-23T02:34:19.575Z,6.93
2023-05-23T02:36:48.074Z,7.07
2023-05-23T02:39:18.092Z,6.30
2023-05-23T02:41:46.508Z,6.40
2023-05-23T02:44:14.959Z,6.33
2023-05-23T02:46:43.434Z,6.13
2023-05-23T02:49:11.946Z,5.83
2023-05-23T02:51:40.440Z,6.27
2023-05-23T02:54:08.881Z,6.13
2023-05-23T02:56:38.769Z,6.17
2023-05-23T02:59:07.556Z,6.37
2023-05-23T03:01:36.466Z,6.80
2023-05-23T03:04:04.910Z,6.70
2023-05-23T03:06:34.225Z,7.10
2023-05-23T03:09:03.360Z,5.93
2023-05-23T03:11:31.728Z,6.27
2023-05-23T03:14:01.585Z,6.67
2023-05-23T03:16:30.101Z,6.13
2023-05-23T03:18:58.682Z,5.97
2023-05-23T03:21:27.330Z,5.90
2023-05-23T03:23:55.915Z,5.73
2023-05-23T03:26:25.223Z,5.33
2023-05-23T03:28:53.602Z,5.37
2023-05-23T03:31:23.460Z,5.67
2023-05-23T03:33:52.334Z,5.33
2023-05-23T03:36:21.963Z,4.90
2023-05-23T03:38:50.506Z,5.17
2023-05-23T03:41:19.275Z,5.10
2023-05-23T03:43:47.958Z,5.50
2023-05-23T03:46:16.367Z,5.00
2023-05-23T03:48:46.216Z,5.30
2023-05-23T03:51:14.727Z,5.17
2023-05-23T03:53:43.122Z,5.67
2023-05-23T03:56:11.562Z,5.10
2023-05-23T03:58:39.935Z,5.17
2023-05-23T04:01:09.399Z,5.10
2023-05-23T04:03:38.190Z,5.07
2023-05-23T04:06:08.273Z,6.00
2023-05-23T04:08:36.811Z,6.60
2023-05-23T04:11:05.437Z,5.60
2023-05-23T04:13:33.943Z,5.67
2023-05-23T04:16:05.726Z,5.50
2023-05-23T04:18:34.425Z,6.57
2023-05-23T04:21:02.974Z,6.13
2023-05-23T04:23:32.909Z,7.20
2023-05-23T04:26:01.503Z,6.50
2023-05-23T04:28:30.147Z,7.20
2023-05-23T04:30:58.849Z,7.37
2023-05-23T04:33:28.347Z,7.77
2023-05-23T04:35:57.420Z,7.20
2023-05-23T04:38:26.218Z,6.83
2023-05-23T04:40:58.023Z,7.93
2023-05-23T04:43:29.410Z,8.17
2023-05-23T04:45:58.097Z,7.70
2023-05-23T04:48:27.736Z,6.93
2023-05-23T04:50:56.319Z,8.17
2023-05-23T04:53:24.821Z,7.23
2023-05-23T04:55:53.226Z,7.57
2023-05-23T04:58:23.267Z,8.63
2023-05-23T05:00:51.850Z,7.60
2023-05-23T05:03:20.254Z,7.30
2023-05-23T05:05:48.686Z,7.67
2023-05-23T05:08:19.946Z,7.57
2023-05-23T05:10:48.683Z,7.47
2023-05-23T05:13:17.116Z,7.07
2023-05-23T05:15:47.888Z,7.27
2023-05-23T05:18:16.444Z,8.10
2023-05-23T05:20:44.900Z,7.20
2023-05-23T05:23:13.443Z,7.30
2023-05-23T05:25:42.334Z,6.77
2023-05-23T05:28:10.901Z,6.50
2023-05-23T05:30:39.962Z,6.77
2023-05-23T05:33:10.307Z,6.47
2023-05-23T05:35:39.367Z,6.47
2023-05-23T05:38:08.566Z,6.57
2023-05-23T05:40:37.331Z,7.00
2023-05-23T05:43:08.788Z,7.00
2023-05-23T05:45:37.304Z,6.60
2023-05-23T05:48:06.356Z,5.80
2023-05-23T05:50:36.266Z,6.43
2023-05-23T05:53:05.674Z,6.20
2023-05-23T05:55:34.016Z,5.50
2023-05-23T05:58:02.530Z,5.10
2023-05-23T06:00:31.012Z,5.33
2023-05-23T06:02:59.750Z,5.07
2023-05-23T06:05:28.837Z,5.00
2023-05-23T06:07:58.640Z,4.47
2023-05-23T06:10:27.355Z,4.17
2023-05-23T06:12:55.918Z,3.57
2023-05-23T06:15:24.337Z,3.73
2023-05-23T06:17:53.203Z,3.80
2023-05-23T06:20:21.832Z,2.90
2023-05-23T06:22:50.498Z,3.43
2023-05-23T06:25:20.420Z,3.73
2023-05-23T06:27:48.898Z,3.50
2023-05-23T06:30:17.786Z,3.57
2023-05-23T06:32:46.523Z,3.70
2023-05-23T06:35:15.015Z,3.50
2023-05-23T06:37:46.425Z,3.27
2023-05-23T06:40:14.801Z,2.90
2023-05-23T06:42:44.665Z,2.80
2023-05-23T06:45:15.772Z,3.07
2023-05-23T06:47:45.734Z,3.10
2023-05-23T06:50:14.329Z,3.13
2023-05-23T06:52:43.877Z,3.47
2023-05-23T06:55:14.512Z,3.30
2023-05-23T06:57:43.025Z,3.23
2023-05-23T07:00:15.033Z,3.43
2023-05-23T07:02:45.585Z,3.37
2023-05-23T07:05:14.133Z,3.43
2023-05-23T07:07:42.768Z,4.20
2023-05-23T07:10:11.746Z,4.40
2023-05-23T07:12:40.275Z,3.97
2023-05-23T07:15:09.294Z,3.33
2023-05-23T07:17:39.215Z,3.87
2023-05-23T07:20:08.418Z,3.40
2023-05-23T07:22:36.891Z,3.60
2023-05-23T07:25:05.979Z,3.33
2023-05-23T07:27:34.394Z,3.80
2023-05-23T07:30:03.224Z,3.73
2023-05-23T07:32:31.689Z,3.70
2023-05-23T07:35:01.707Z,3.83
2023-05-23T07:37:30.115Z,3.30
2023-05-23T07:39:58.738Z,3.73
2023-05-23T07:42:27.209Z,3.77
2023-05-23T07:44:55.604Z,3.43
2023-05-23T07:47:24.607Z,3.90
2023-05-23T07:49:53.320Z,3.17
2023-05-23T07:52:23.405Z,4.00
2023-05-23T07:54:51.807Z,3.40
2023-05-23T07:57:20.549Z,3.43
2023-05-23T07:59:49.041Z,3.50
2023-05-23T08:02:17.587Z,4.67
2023-05-23T08:04:46.760Z,3.53
2023-05-23T08:07:17.334Z,3.83
2023-05-23T08:09:48.450Z,4.13
2023-05-23T08:12:16.855Z,3.40
2023-05-23T08:14:51.381Z,3.73
2023-05-23T08:17:20.933Z,3.90
2023-05-23T08:19:49.616Z,2.93
2023-05-23T08:22:18.025Z,4.37
2023-05-23T08:24:47.851Z,3.90
2023-05-23T08:27:16.300Z,3.50
2023-05-23T08:29:44.861Z,3.80
2023-05-23T08:32:13.513Z,4.30
2023-05-23T08:34:42.304Z,4.03
2023-05-23T08:37:11.209Z,4.17
2023-05-23T08:39:39.694Z,3.97
2023-05-23T08:42:09.855Z,3.80
2023-05-23T08:44:38.471Z,3.50
2023-05-23T08:47:07.792Z,3.73
2023-05-23T08:49:36.189Z,3.87
2023-05-23T08:52:04.830Z,3.17
2023-05-23T08:54:33.988Z,4.00
2023-05-23T08:57:02.934Z,3.57
2023-05-23T08:59:32.759Z,4.03
2023-05-23T09:02:01.173Z,3.50
2023-05-23T09:04:32.377Z,3.27
2023-05-23T09:07:00.840Z,3.27
2023-05-23T09:09:29.258Z,3.37
2023-05-23T09:11:58.356Z,4.23
2023-05-23T09:14:26.858Z,3.87
2023-05-23T09:17:03.982Z,3.27
2023-05-23T09:19:33.664Z,4.00
2023-05-23T09:22:02.348Z,3.83
2023-05-23T09:24:36.293Z,3.20
2023-05-23T09:27:04.689Z,3.73
2023-05-23T09:29:33.047Z,3.10
2023-05-23T09:32:07.433Z,3.50
2023-05-23T09:34:36.085Z,3.20
2023-05-23T09:37:04.498Z,3.60
2023-05-23T09:39:32.916Z,3.50
2023-05-23T09:42:01.567Z,3.13
2023-05-23T09:44:30.313Z,3.23
2023-05-23T09:46:58.679Z,3.67
2023-05-23T09:49:28.578Z,3.67
2023-05-23T09:52:00.422Z,3.77
2023-05-23T09:54:28.846Z,3.73
2023-05-23T09:56:57.786Z,3.40
2023-05-23T09:59:26.341Z,3.17
2023-05-23T10:01:55.023Z,3.70
2023-05-23T10:04:24.001Z,3.37
2023-05-23T10:06:55.645Z,3.47
2023-05-23T10:09:24.093Z,3.70
2023-05-23T10:12:25.627Z,4.13
2023-05-23T10:14:54.609Z,3.63
2023-05-23T10:17:23.695Z,4.47
2023-05-23T10:19:53.683Z,3.93
2023-05-23T10:22:23.538Z,3.07
2023-05-23T10:24:51.934Z,3.10
2023-05-23T10:27:20.550Z,3.30
2023-05-23T10:29:49.231Z,2.73
2023-05-23T10:32:17.764Z,3.23
2023-05-23T10:34:47.942Z,3.53
2023-05-23T10:37:18.928Z,3.30
2023-05-23T10:39:55.138Z,2.87
2023-05-23T10:42:25.964Z,3.13
2023-05-23T10:44:54.484Z,3.20
2023-05-23T10:47:28.420Z,2.97
2023-05-23T10:49:56.953Z,2.87
2023-05-23T10:52:27.079Z,2.27
2023-05-23T10:54:57.695Z,2.70
2023-05-23T10:57:28.754Z,3.40
2023-05-23T10:59:57.446Z,3.33
2023-05-23T11:02:27.696Z,3.13
2023-05-23T11:05:11.289Z,2.83
2023-05-23T11:07:39.771Z,2.70
2023-05-23T11:10:12.720Z,2.87
2023-05-23T11:12:42.344Z,2.40
2023-05-23T11:15:21.721Z,2.20
2023-05-23T11:17:54.072Z,2.53
2023-05-23T11:20:23.588Z,3.23
2023-05-23T11:23:01.149Z,2.80
2023-05-23T11:25:43.320Z,2.67
2023-05-23T11:28:11.802Z,3.03
2023-05-23T11:30:40.541Z,3.17
2023-05-23T11:33:13.857Z,3.47
2023-05-23T11:35:42.923Z,3.27
2023-05-23T11:38:11.749Z,3.83
2023-05-23T11:40:40.730Z,3.30
2023-05-23T11:43:11.527Z,3.33
2023-05-23T11:45:40.202Z,3.27
2023-05-23T11:48:09.345Z,2.80
2023-05-23T11:50:45.121Z,3.00
2023-05-23T11:53:13.714Z,3.40
2023-05-23T11:55:42.455Z,2.80
2023-05-23T11:58:12.374Z,2.87
2023-05-23T12:00:45.315Z,3.30
2023-05-23T12:03:13.946Z,3.47
2023-05-23T12:05:45.026Z,3.23
2023-05-23T12:08:14.816Z,3.07
2023-05-23T12:10:51.275Z,3.30
2023-05-23T12:13:21.108Z,3.07
2023-05-23T12:15:51.618Z,3.17
2023-05-23T12:18:21.469Z,3.50
2023-05-23T12:20:51.196Z,3.70
2023-05-23T12:23:23.199Z,4.43
2023-05-23T12:25:52.744Z,3.20
2023-05-23T12:28:22.906Z,2.70
2023-05-23T12:30:51.443Z,2.50
2023-05-23T12:33:20.929Z,3.07
2023-05-23T12:35:49.633Z,3.10
2023-05-23T12:38:18.629Z,3.40
2023-05-23T12:40:47.025Z,3.27
2023-05-23T12:43:17.734Z,2.70
2023-05-23T12:45:47.722Z,2.37
2023-05-23T12:48:16.807Z,2.23
2023-05-23T12:50:45.728Z,2.27
2023-05-23T12:53:14.209Z,2.53
2023-05-23T12:55:42.851Z,2.83
2023-05-23T12:58:11.567Z,2.97
2023-05-23T13:00:40.171Z,3.20
2023-05-23T13:03:10.316Z,2.77
2023-05-23T13:05:39.078Z,2.57
2023-05-23T13:08:07.848Z,3.10
2023-05-23T13:10:36.301Z,3.03
2023-05-23T13:13:04.896Z,3.30
2023-05-23T13:15:34.349Z,2.47
2023-05-23T13:18:03.390Z,2.67
2023-05-23T13:20:34.587Z,2.40
2023-05-23T13:23:03.203Z,2.63
2023-05-23T13:25:32.011Z,2.80
2023-05-23T13:28:01.948Z,2.70
2023-05-23T13:30:30.458Z,2.73
2023-05-23T13:32:59.634Z,2.40
2023-05-23T13:35:28.692Z,2.70
2023-05-23T13:38:02.200Z,2.80
2023-05-23T13:40:31.266Z,2.67
2023-05-23T13:42:59.953Z,2.87
2023-05-23T13:45:28.482Z,3.10
2023-05-23T13:47:57.849Z,2.80
2023-05-23T13:50:26.702Z,2.83
2023-05-23T13:52:55.548Z,3.00
2023-05-23T13:55:25.536Z,2.83
2023-05-23T13:57:54.472Z,2.67
2023-05-23T14:00:23.438Z,2.70
2023-05-23T14:02:52.465Z,2.73
2023-05-23T14:05:21.414Z,2.10
2023-05-23T14:07:49.988Z,2.80
2023-05-23T14:10:18.843Z,2.90
2023-05-23T14:12:49.003Z,2.63
2023-05-23T14:15:18.705Z,2.83
2023-05-23T14:17:47.430Z,2.80
2023-05-23T14:20:16.273Z,3.03
2023-05-23T14:22:45.014Z,2.40
2023-05-23T14:25:13.896Z,2.77
2023-05-23T14:27:42.661Z,2.37
2023-05-23T14:30:13.625Z,2.40
2023-05-23T14:32:42.177Z,2.37
2023-05-23T14:35:12.096Z,2.40
2023-05-23T14:37:41.309Z,2.73
2023-05-23T14:40:11.334Z,2.40
2023-05-23T14:42:40.396Z,2.50
2023-05-23T14:45:12.441Z,2.63
2023-05-23T14:47:41.851Z,2.70
2023-05-23T14:50:11.007Z,2.87
2023-05-23T14:52:40.074Z,2.60
2023-05-23T14:55:09.318Z,2.30
2023-05-23T14:57:38.560Z,2.50
2023-05-23T15:00:08.649Z,2.50
2023-05-23T15:02:38.595Z,2.47
2023-05-23T15:05:07.931Z,2.50
2023-05-23T15:07:37.346Z,2.27
2023-05-23T15:10:06.419Z,2.77
2023-05-23T15:12:35.076Z,2.50
2023-05-23T15:15:04.329Z,2.17
2023-05-23T15:17:32.721Z,2.63
2023-05-23T15:20:03.887Z,2.63
2023-05-23T15:22:39.376Z,2.30
2023-05-23T15:25:09.026Z,2.40
2023-05-23T15:27:37.667Z,2.53
2023-05-23T15:30:14.933Z,2.53
2023-05-23T15:32:53.645Z,2.93
2023-05-23T15:35:25.987Z,2.80
2023-05-23T15:37:54.423Z,3.17
2023-05-23T15:40:22.869Z,2.57
2023-05-23T15:42:51.387Z,2.50
2023-05-23T15:45:19.894Z,2.37
2023-05-23T15:47:48.391Z,2.20
2023-05-23T15:50:18.845Z,2.70
2023-05-23T15:52:48.609Z,2.70
2023-05-23T15:55:17.058Z,2.30
2023-05-23T15:57:45.546Z,2.67
2023-05-23T16:00:14.520Z,2.07
2023-05-23T16:02:42.998Z,2.30
2023-05-23T16:05:11.740Z,2.37
2023-05-23T16:07:40.424Z,2.93
2023-05-23T16:10:10.767Z,3.10
2023-05-23T16:12:39.219Z,2.77
2023-05-23T16:15:08.805Z,2.20
2023-05-23T16:17:37.227Z,2.43
2023-05-23T16:20:06.162Z,2.70
2023-05-23T16:22:34.611Z,2.97
2023-05-23T16:25:03.182Z,2.20
2023-05-23T16:27:33.091Z,2.87
2023-05-23T16:30:01.770Z,3.07
2023-05-23T16:32:30.340Z,2.73
2023-05-23T16:34:58.823Z,2.90
2023-05-23T16:37:27.538Z,2.40
2023-05-23T16:39:56.158Z,3.30
2023-05-23T16:42:24.603Z,2.50
2023-05-23T16:44:54.898Z,2.37
2023-05-23T16:47:23.471Z,2.20
2023-05-23T16:49:52.072Z,2.23
2023-05-23T16:52:20.754Z,2.03
2023-05-23T16:54:49.445Z,2.17
2023-05-23T16:57:18.234Z,2.43
2023-05-23T16:59:47.765Z,2.53
2023-05-23T17:02:17.574Z,1.87
2023-05-23T17:04:46.569Z,2.50
2023-05-23T17:07:15.001Z,3.33
2023-05-23T17:09:43.482Z,1.80
2023-05-23T17:12:13.240Z,2.23
2023-05-23T17:14:41.658Z,2.17
2023-05-23T17:17:10.337Z,2.20
2023-05-23T17:19:40.331Z,2.63
2023-05-23T17:22:08.851Z,2.40
2023-05-23T17:24:37.711Z,2.90
2023-05-23T17:27:06.586Z,2.70
2023-05-23T17:29:34.975Z,1.90
2023-05-23T17:32:03.611Z,2.40
2023-05-23T17:34:32.112Z,2.43
2023-05-23T17:37:02.238Z,2.30
2023-05-23T17:39:30.840Z,2.17
2023-05-23T17:41:59.454Z,2.20
2023-05-23T17:44:28.086Z,2.50
2023-05-23T17:46:56.914Z,2.07
2023-05-23T17:49:26.008Z,2.07
2023-05-23T17:51:54.459Z,1.70
2023-05-23T17:54:24.213Z,2.30
2023-05-23T17:56:53.046Z,2.10
2023-05-23T17:59:21.546Z,2.20
2023-05-23T18:01:49.932Z,3.37
2023-05-23T18:04:18.704Z,2.47
2023-05-23T18:06:47.113Z,2.50
2023-05-23T18:09:16.547Z,2.60
2023-05-23T18:11:46.483Z,2.40
2023-05-23T18:14:15.008Z,2.83
2023-05-23T18:16:43.615Z,3.07
2023-05-23T18:19:12.230Z,2.30
2023-05-23T18:21:40.955Z,2.60
2023-05-23T18:24:11.736Z,2.83
2023-05-23T18:26:42.401Z,2.73
2023-05-23T18:29:12.374Z,2.70
2023-05-23T18:31:41.004Z,2.43
2023-05-23T18:34:09.983Z,2.90
2023-05-23T18:36:38.620Z,2.70
2023-05-23T18:39:07.150Z,2.50
2023-05-23T18:41:36.027Z,2.80
2023-05-23T18:44:06.465Z,2.40
2023-05-23T18:46:36.408Z,2.67
2023-05-23T18:49:05.407Z,3.23
2023-05-23T18:51:34.183Z,2.67
2023-05-23T18:54:02.665Z,2.57
2023-05-23T18:56:31.563Z,2.70
2023-05-23T18:58:59.991Z,2.70
2023-05-23T19:01:28.481Z,2.37
2023-05-23T19:03:58.976Z,2.90
2023-05-23T19:06:27.870Z,2.90
2023-05-23T19:08:56.473Z,3.47
2023-05-23T19:11:24.898Z,3.27
2023-05-23T19:13:54.644Z,3.30
2023-05-23T19:16:24.078Z,2.23
2023-05-23T19:18:52.758Z,2.90
2023-05-23T19:21:22.678Z,2.73
2023-05-23T19:23:51.341Z,2.77
2023-05-23T19:26:20.708Z,2.50
2023-05-23T19:28:49.229Z,2.80
2023-05-23T19:31:17.676Z,2.43
2023-05-23T19:33:46.249Z,2.60
2023-05-23T19:36:14.814Z,2.93
2023-05-23T19:38:44.617Z,2.83
2023-05-23T19:41:13.393Z,3.40
2023-05-23T19:43:41.856Z,2.67
2023-05-23T19:46:10.340Z,2.60
2023-05-23T19:48:38.797Z,3.97
2023-05-23T19:51:07.484Z,3.10
2023-05-23T19:53:36.349Z,3.07
2023-05-23T19:56:06.684Z,3.00
2023-05-23T19:58:36.461Z,3.53
2023-05-23T20:01:05.034Z,2.47
2023-05-23T20:03:33.635Z,2.63
2023-05-23T20:06:04.175Z,2.60
2023-05-23T20:08:33.109Z,2.80
2023-05-23T20:11:01.592Z,2.90
2023-05-23T20:13:32.083Z,3.70
2023-05-23T20:16:01.012Z,3.43
2023-05-23T20:18:29.478Z,2.80
2023-05-23T20:20:57.962Z,2.47
2023-05-23T20:23:27.211Z,2.57
2023-05-23T20:25:56.351Z,2.90
2023-05-23T20:28:25.179Z,3.13
2023-05-23T20:30:55.100Z,3.83
2023-05-23T20:33:23.514Z,2.80
2023-05-23T20:35:52.335Z,2.90
2023-05-23T20:38:20.752Z,2.77
2023-05-23T20:40:52.216Z,3.80
2023-05-23T20:43:22.402Z,2.70
2023-05-23T20:45:51.272Z,3.10
2023-05-23T20:48:21.379Z,2.83
2023-05-23T20:50:49.883Z,3.67
2023-05-23T20:53:18.657Z,3.10
2023-05-23T20:55:47.409Z,2.60
2023-05-23T20:58:16.406Z,4.30
2023-05-23T21:00:45.144Z,3.50
2023-05-23T21:03:13.993Z,3.30
2023-05-23T21:05:44.083Z,3.10
2023-05-23T21:08:12.899Z,3.67
2023-05-23T21:10:41.794Z,3.60
2023-05-23T21:13:10.671Z,3.60
2023-05-23T21:15:39.247Z,3.00
2023-05-23T21:18:07.901Z,3.03
2023-05-23T21:20:36.455Z,3.37
2023-05-23T21:23:06.564Z,3.43
2023-05-23T21:25:35.145Z,3.40
2023-05-23T21:28:03.617Z,3.60
2023-05-23T21:30:32.158Z,3.90
2023-05-23T21:33:00.623Z,5.37
2023-05-23T21:35:29.120Z,5.23
2023-05-23T21:37:57.872Z,5.50
2023-05-23T21:40:27.866Z,5.37
2023-05-23T21:42:56.352Z,3.70
2023-05-23T21:45:24.774Z,4.27
2023-05-23T21:47:53.703Z,3.70
2023-05-23T21:50:22.218Z,3.50
2023-05-23T21:52:50.803Z,3.90
2023-05-23T21:55:19.184Z,3.27
2023-05-23T21:57:49.012Z,3.17
2023-05-23T22:00:19.538Z,2.87
2023-05-23T22:02:48.465Z,3.20
2023-05-23T22:05:17.185Z,3.27
2023-05-23T22:07:45.972Z,3.70
2023-05-23T22:10:14.495Z,3.17
2023-05-23T22:12:42.865Z,3.60
2023-05-23T22:15:13.322Z,3.40
2023-05-23T22:17:43.706Z,2.90
2023-05-23T22:20:14.662Z,3.17
2023-05-23T22:22:43.368Z,3.73
2023-05-23T22:25:12.001Z,3.30
2023-05-23T22:27:40.489Z,3.03
2023-05-23T22:30:09.614Z,3.00
2023-05-23T22:32:39.448Z,2.93
2023-05-23T22:35:08.336Z,3.10
2023-05-23T22:37:36.830Z,3.47
2023-05-23T22:40:05.530Z,3.57
2023-05-23T22:42:34.018Z,3.37
2023-05-23T22:45:02.602Z,3.10
2023-05-23T22:47:32.568Z,3.33
2023-05-23T22:50:02.472Z,3.67
2023-05-23T22:52:31.600Z,3.63
2023-05-23T22:55:00.223Z,3.63
2023-05-23T22:57:28.754Z,3.33
2023-05-23T22:59:57.389Z,3.63
2023-05-23T23:02:26.026Z,3.40
2023-05-23T23:04:54.753Z,3.40
2023-05-23T23:07:24.543Z,3.63
2023-05-23T23:10:01.600Z,3.47
2023-05-23T23:12:30.047Z,3.90
2023-05-23T23:14:58.566Z,3.17
2023-05-23T23:17:27.134Z,3.30
2023-05-23T23:19:55.991Z,4.07
2023-05-23T23:22:26.060Z,3.50
2023-05-23T23:24:55.996Z,3.60
2023-05-23T23:27:30.834Z,3.43
2023-05-23T23:29:59.710Z,3.23
2023-05-23T23:32:28.446Z,3.37
2023-05-23T23:34:57.067Z,3.13
2023-05-23T23:37:27.334Z,3.10
2023-05-23T23:39:55.880Z,3.57
2023-05-23T23:42:24.552Z,3.33
2023-05-23T23:44:52.959Z,3.60
2023-05-23T23:47:21.437Z,4.37
2023-05-23T23:49:49.830Z,3.60
2023-05-23T23:52:18.279Z,4.00
2023-05-23T23:54:48.310Z,3.50
2023-05-23T23:57:16.846Z,3.57
2023-05-23T23:59:45.352Z,4.27
